sensor_id;sensor_type;location;lat;lon;timestamp;temperature;humidity
3912;DHT22;1971;51.778;10.330;2023-09-30T00:35:35;11.30;99.90
3912;DHT22;1971;51.778;10.330;2023-09-30T00:38:06;11.20;99.90
3912;DHT22;1971;51.778;10.330;2023-09-30T00:40:37;11.20;99.90
3912;DHT22;1971;51.778;10.330;2023-09-30T00:43:18;11.20;99.90
3912;DHT22;1971;51.778;10.330;2023-09-30T00:45:49;11.40;99.90
3912;DHT22;1971;51.778;10.330;2023-09-30T00:48:21;11.40;99.90
3912;DHT22;1971;51.778;10.330;2023-09-30T00:50:54;11.30;99.90
3912;DHT22;1971;51.778;10.330;2023-09-30T00:53:25;11.30;99.90
3912;DHT22;1971;51.778;10.330;2023-09-30T00:55:56;11.50;99.90
3912;DHT22;1971;51.778;10.330;2023-09-30T00:58:27;11.30;99.90
3912;DHT22;1971;51.778;10.330;2023-09-30T01:00:58;11.30;99.90
3912;DHT22;1971;51.778;10.330;2023-09-30T01:03:29;11.30;99.90
3912;DHT22;1971;51.778;10.330;2023-09-30T01:06:04;11.30;99.90
3912;DHT22;1971;51.778;10.330;2023-09-30T01:08:35;11.30;99.90
3912;DHT22;1971;51.778;10.330;2023-09-30T01:11:05;11.20;99.90
3912;DHT22;1971;51.778;10.330;2023-09-30T01:13:37;11.30;99.90
3912;DHT22;1971;51.778;10.330;2023-09-30T01:16:08;11.40;99.90
3912;DHT22;1971;51.778;10.330;2023-09-30T01:18:40;11.10;99.90
3912;DHT22;1971;51.778;10.330;2023-09-30T01:21:13;11.00;99.90
3912;DHT22;1971;51.778;10.330;2023-09-30T01:23:47;11.00;99.90
3912;DHT22;1971;51.778;10.330;2023-09-30T01:26:17;11.00;99.90
3912;DHT22;1971;51.778;10.330;2023-09-30T01:28:47;11.00;99.90
3912;DHT22;1971;51.778;10.330;2023-09-30T01:31:18;11.00;99.90
3912;DHT22;1971;51.778;10.330;2023-09-30T01:33:49;11.10;99.90
3912;DHT22;1971;51.778;10.330;2023-09-30T01:36:24;11.00;99.90
3912;DHT22;1971;51.778;10.330;2023-09-30T01:38:58;11.10;99.90
3912;DHT22;1971;51.778;10.330;2023-09-30T01:41:28;11.10;99.90
3912;DHT22;1971;51.778;10.330;2023-09-30T01:43:59;11.30;99.90
3912;DHT22;1971;51.778;10.330;2023-09-30T01:46:29;11.20;99.90
3912;DHT22;1971;51.778;10.330;2023-09-30T01:49:00;11.30;99.90
3912;DHT22;1971;51.778;10.330;2023-09-30T01:51:30;11.20;99.90
3912;DHT22;1971;51.778;10.330;2023-09-30T01:54:04;11.20;99.90
3912;DHT22;1971;51.778;10.330;2023-09-30T01:56:34;11.20;99.90
3912;DHT22;1971;51.778;10.330;2023-09-30T01:59:05;11.20;99.90
3912;DHT22;1971;51.778;10.330;2023-09-30T02:01:35;11.20;99.90
3912;DHT22;1971;51.778;10.330;2023-09-30T02:04:06;11.00;99.90
3912;DHT22;1971;51.778;10.330;2023-09-30T02:06:36;11.00;99.90
3912;DHT22;1971;51.778;10.330;2023-09-30T02:09:10;11.30;99.90
3912;DHT22;1971;51.778;10.330;2023-09-30T02:11:40;11.10;99.90
3912;DHT22;1971;51.778;10.330;2023-09-30T02:14:11;11.00;99.90
3912;DHT22;1971;51.778;10.330;2023-09-30T02:16:41;11.20;99.90
3912;DHT22;1971;51.778;10.330;2023-09-30T02:19:11;10.90;99.90
3912;DHT22;1971;51.778;10.330;2023-09-30T02:21:42;11.00;99.90
3912;DHT22;1971;51.778;10.330;2023-09-30T02:24:15;11.10;99.90
3912;DHT22;1971;51.778;10.330;2023-09-30T02:26:45;10.90;99.90
3912;DHT22;1971;51.778;10.330;2023-09-30T02:29:16;11.00;99.90
3912;DHT22;1971;51.778;10.330;2023-09-30T02:31:50;11.00;99.90
3912;DHT22;1971;51.778;10.330;2023-09-30T02:34:21;10.90;99.90
3912;DHT22;1971;51.778;10.330;2023-09-30T02:36:53;11.10;99.90
3912;DHT22;1971;51.778;10.330;2023-09-30T02:39:26;11.20;99.90
3912;DHT22;1971;51.778;10.330;2023-09-30T02:41:56;11.30;99.90
3912;DHT22;1971;51.778;10.330;2023-09-30T02:44:27;11.20;99.90
3912;DHT22;1971;51.778;10.330;2023-09-30T02:46:57;11.10;99.90
3912;DHT22;1971;51.778;10.330;2023-09-30T02:49:27;11.00;99.90
3912;DHT22;1971;51.778;10.330;2023-09-30T02:51:58;11.10;99.90
3912;DHT22;1971;51.778;10.330;2023-09-30T02:54:31;11.20;99.90
3912;DHT22;1971;51.778;10.330;2023-09-30T02:57:01;11.20;99.90
3912;DHT22;1971;51.778;10.330;2023-09-30T02:59:32;11.20;99.90
3912;DHT22;1971;51.778;10.330;2023-09-30T03:02:03;11.30;99.90
3912;DHT22;1971;51.778;10.330;2023-09-30T03:04:34;11.30;99.90
3912;DHT22;1971;51.778;10.330;2023-09-30T03:07:04;11.20;99.90
3912;DHT22;1971;51.778;10.330;2023-09-30T03:09:39;11.10;99.90
3912;DHT22;1971;51.778;10.330;2023-09-30T03:12:09;11.10;99.90
3912;DHT22;1971;51.778;10.330;2023-09-30T03:14:41;11.20;99.90
3912;DHT22;1971;51.778;10.330;2023-09-30T03:17:11;11.20;99.90
3912;DHT22;1971;51.778;10.330;2023-09-30T03:19:41;11.10;99.90
3912;DHT22;1971;51.778;10.330;2023-09-30T03:22:11;11.20;99.90
3912;DHT22;1971;51.778;10.330;2023-09-30T03:24:47;11.30;99.90
3912;DHT22;1971;51.778;10.330;2023-09-30T03:27:18;11.10;99.90
3912;DHT22;1971;51.778;10.330;2023-09-30T03:29:48;11.10;99.90
3912;DHT22;1971;51.778;10.330;2023-09-30T03:32:22;11.20;99.90
3912;DHT22;1971;51.778;10.330;2023-09-30T03:34:52;11.20;99.90
3912;DHT22;1971;51.778;10.330;2023-09-30T03:37:26;11.20;99.90
3912;DHT22;1971;51.778;10.330;2023-09-30T03:40:01;11.30;99.90
3912;DHT22;1971;51.778;10.330;2023-09-30T03:42:40;11.10;99.90
3912;DHT22;1971;51.778;10.330;2023-09-30T03:45:12;11.10;99.90
3912;DHT22;1971;51.778;10.330;2023-09-30T03:47:43;10.80;99.90
3912;DHT22;1971;51.778;10.330;2023-09-30T03:50:16;10.90;99.90
3912;DHT22;1971;51.778;10.330;2023-09-30T03:52:47;10.70;99.90
3912;DHT22;1971;51.778;10.330;2023-09-30T03:55:20;10.90;99.90
3912;DHT22;1971;51.778;10.330;2023-09-30T03:57:50;10.80;99.90
3912;DHT22;1971;51.778;10.330;2023-09-30T04:00:21;10.70;99.90
3912;DHT22;1971;51.778;10.330;2023-09-30T04:02:52;10.70;99.90
3912;DHT22;1971;51.778;10.330;2023-09-30T04:05:26;10.70;99.90
3912;DHT22;1971;51.778;10.330;2023-09-30T04:07:57;10.70;99.90
3912;DHT22;1971;51.778;10.330;2023-09-30T04:10:30;10.70;99.90
3912;DHT22;1971;51.778;10.330;2023-09-30T04:13:00;10.90;99.90
3912;DHT22;1971;51.778;10.330;2023-09-30T04:15:30;10.50;99.90
3912;DHT22;1971;51.778;10.330;2023-09-30T04:18:05;10.60;99.90
3912;DHT22;1971;51.778;10.330;2023-09-30T04:20:35;10.60;99.90
3912;DHT22;1971;51.778;10.330;2023-09-30T04:23:07;10.60;99.90
3912;DHT22;1971;51.778;10.330;2023-09-30T04:25:40;10.60;99.90
3912;DHT22;1971;51.778;10.330;2023-09-30T04:28:10;10.60;99.90
3912;DHT22;1971;51.778;10.330;2023-09-30T04:30:43;10.70;99.90
3912;DHT22;1971;51.778;10.330;2023-09-30T04:33:15;10.90;99.90
3912;DHT22;1971;51.778;10.330;2023-09-30T04:35:47;10.70;99.90
3912;DHT22;1971;51.778;10.330;2023-09-30T04:38:17;10.70;99.90
3912;DHT22;1971;51.778;10.330;2023-09-30T04:40:51;10.80;99.90
3912;DHT22;1971;51.778;10.330;2023-09-30T04:43:21;10.80;99.90
3912;DHT22;1971;51.778;10.330;2023-09-30T04:45:51;10.80;99.90
3912;DHT22;1971;51.778;10.330;2023-09-30T04:48:24;10.70;99.90
3912;DHT22;1971;51.778;10.330;2023-09-30T04:50:54;10.70;99.90
3912;DHT22;1971;51.778;10.330;2023-09-30T04:53:25;10.70;99.90
3912;DHT22;1971;51.778;10.330;2023-09-30T04:55:57;10.60;99.90
3912;DHT22;1971;51.778;10.330;2023-09-30T04:58:28;10.60;99.90
3912;DHT22;1971;51.778;10.330;2023-09-30T05:00:59;10.60;99.90
3912;DHT22;1971;51.778;10.330;2023-09-30T05:03:30;10.80;99.90
3912;DHT22;1971;51.778;10.330;2023-09-30T05:06:01;10.60;99.90
3912;DHT22;1971;51.778;10.330;2023-09-30T05:08:31;10.70;99.90
3912;DHT22;1971;51.778;10.330;2023-09-30T05:11:07;10.60;99.90
3912;DHT22;1971;51.778;10.330;2023-09-30T05:13:37;10.70;99.90
3912;DHT22;1971;51.778;10.330;2023-09-30T05:16:08;10.70;99.90
3912;DHT22;1971;51.778;10.330;2023-09-30T05:18:41;10.60;99.90
3912;DHT22;1971;51.778;10.330;2023-09-30T05:21:12;10.80;99.90
3912;DHT22;1971;51.778;10.330;2023-09-30T05:23:43;10.80;99.90
3912;DHT22;1971;51.778;10.330;2023-09-30T05:26:16;10.70;99.90
3912;DHT22;1971;51.778;10.330;2023-09-30T05:28:49;10.80;99.90
3912;DHT22;1971;51.778;10.330;2023-09-30T05:31:20;10.60;99.90
3912;DHT22;1971;51.778;10.330;2023-09-30T05:33:50;10.60;99.90
3912;DHT22;1971;51.778;10.330;2023-09-30T05:36:20;10.70;99.90
3912;DHT22;1971;51.778;10.330;2023-09-30T05:38:51;10.60;99.90
3912;DHT22;1971;51.778;10.330;2023-09-30T05:41:25;10.50;99.90
3912;DHT22;1971;51.778;10.330;2023-09-30T05:43:57;10.60;99.90
3912;DHT22;1971;51.778;10.330;2023-09-30T05:46:29;10.60;99.90
3912;DHT22;1971;51.778;10.330;2023-09-30T05:49:00;10.60;99.90
3912;DHT22;1971;51.778;10.330;2023-09-30T05:51:40;10.60;99.90
3912;DHT22;1971;51.778;10.330;2023-09-30T05:54:10;10.70;99.90
3912;DHT22;1971;51.778;10.330;2023-09-30T05:56:43;10.50;99.90
3912;DHT22;1971;51.778;10.330;2023-09-30T05:59:14;10.80;99.90
3912;DHT22;1971;51.778;10.330;2023-09-30T06:01:44;10.60;99.90
3912;DHT22;1971;51.778;10.330;2023-09-30T06:04:15;10.60;99.90
3912;DHT22;1971;51.778;10.330;2023-09-30T06:06:45;10.60;99.90
3912;DHT22;1971;51.778;10.330;2023-09-30T06:09:16;10.60;99.90
3912;DHT22;1971;51.778;10.330;2023-09-30T06:11:49;10.60;99.90
3912;DHT22;1971;51.778;10.330;2023-09-30T06:14:19;10.70;99.90
3912;DHT22;1971;51.778;10.330;2023-09-30T06:16:49;10.70;99.90
3912;DHT22;1971;51.778;10.330;2023-09-30T06:19:20;10.80;99.90
3912;DHT22;1971;51.778;10.330;2023-09-30T06:21:51;10.80;99.90
3912;DHT22;1971;51.778;10.330;2023-09-30T06:24:21;10.80;99.90
3912;DHT22;1971;51.778;10.330;2023-09-30T06:26:54;10.80;99.90
3912;DHT22;1971;51.778;10.330;2023-09-30T06:29:24;10.90;99.90
3912;DHT22;1971;51.778;10.330;2023-09-30T06:31:54;11.00;99.90
3912;DHT22;1971;51.778;10.330;2023-09-30T06:34:25;10.90;99.90
3912;DHT22;1971;51.778;10.330;2023-09-30T06:36:55;10.90;99.90
3912;DHT22;1971;51.778;10.330;2023-09-30T06:39:25;11.00;99.90
3912;DHT22;1971;51.778;10.330;2023-09-30T06:41:59;11.10;99.90
3912;DHT22;1971;51.778;10.330;2023-09-30T06:44:30;11.10;99.90
3912;DHT22;1971;51.778;10.330;2023-09-30T06:47:01;11.20;99.90
3912;DHT22;1971;51.778;10.330;2023-09-30T06:49:33;11.20;99.90
3912;DHT22;1971;51.778;10.330;2023-09-30T06:52:04;11.30;99.90
3912;DHT22;1971;51.778;10.330;2023-09-30T06:54:35;11.10;99.90
3912;DHT22;1971;51.778;10.330;2023-09-30T06:57:07;11.20;99.90
3912;DHT22;1971;51.778;10.330;2023-09-30T06:59:39;11.20;99.90
3912;DHT22;1971;51.778;10.330;2023-09-30T07:02:10;11.20;99.90
3912;DHT22;1971;51.778;10.330;2023-09-30T07:04:40;11.20;99.90
3912;DHT22;1971;51.778;10.330;2023-09-30T07:07:10;11.20;99.90
3912;DHT22;1971;51.778;10.330;2023-09-30T07:09:44;11.10;99.90
3912;DHT22;1971;51.778;10.330;2023-09-30T07:12:17;11.10;99.90
3912;DHT22;1971;51.778;10.330;2023-09-30T07:14:48;11.20;99.90
3912;DHT22;1971;51.778;10.330;2023-09-30T07:17:21;11.30;99.90
3912;DHT22;1971;51.778;10.330;2023-09-30T07:19:51;11.30;99.90
3912;DHT22;1971;51.778;10.330;2023-09-30T07:22:21;11.30;99.90
3912;DHT22;1971;51.778;10.330;2023-09-30T07:25:06;11.40;99.90
3912;DHT22;1971;51.778;10.330;2023-09-30T07:27:39;11.20;99.90
3912;DHT22;1971;51.778;10.330;2023-09-30T07:30:11;11.20;99.90
3912;DHT22;1971;51.778;10.330;2023-09-30T07:32:49;11.30;99.90
3912;DHT22;1971;51.778;10.330;2023-09-30T07:35:20;11.20;99.90
3912;DHT22;1971;51.778;10.330;2023-09-30T07:37:50;11.30;99.90
3912;DHT22;1971;51.778;10.330;2023-09-30T07:40:25;11.50;99.90
3912;DHT22;1971;51.778;10.330;2023-09-30T07:42:57;11.60;99.90
3912;DHT22;1971;51.778;10.330;2023-09-30T07:45:28;11.70;99.90
3912;DHT22;1971;51.778;10.330;2023-09-30T07:48:01;11.80;99.90
3912;DHT22;1971;51.778;10.330;2023-09-30T07:50:33;12.00;99.90
3912;DHT22;1971;51.778;10.330;2023-09-30T07:53:03;12.10;99.90
3912;DHT22;1971;51.778;10.330;2023-09-30T07:55:33;12.10;99.90
3912;DHT22;1971;51.778;10.330;2023-09-30T07:58:09;11.90;99.90
3912;DHT22;1971;51.778;10.330;2023-09-30T08:00:40;11.70;99.90
3912;DHT22;1971;51.778;10.330;2023-09-30T08:03:12;11.70;99.90
3912;DHT22;1971;51.778;10.330;2023-09-30T08:05:43;11.90;99.90
3912;DHT22;1971;51.778;10.330;2023-09-30T08:08:13;12.20;99.90
3912;DHT22;1971;51.778;10.330;2023-09-30T08:10:43;12.30;99.90
3912;DHT22;1971;51.778;10.330;2023-09-30T08:13:16;12.30;99.90
3912;DHT22;1971;51.778;10.330;2023-09-30T08:15:47;12.30;99.90
3912;DHT22;1971;51.778;10.330;2023-09-30T08:18:17;12.30;99.90
3912;DHT22;1971;51.778;10.330;2023-09-30T08:20:52;12.40;99.90
3912;DHT22;1971;51.778;10.330;2023-09-30T08:23:23;12.70;99.90
3912;DHT22;1971;51.778;10.330;2023-09-30T08:25:53;12.80;99.90
3912;DHT22;1971;51.778;10.330;2023-09-30T08:28:26;12.90;99.90
3912;DHT22;1971;51.778;10.330;2023-09-30T08:31:02;12.90;99.90
3912;DHT22;1971;51.778;10.330;2023-09-30T08:33:32;13.00;99.90
3912;DHT22;1971;51.778;10.330;2023-09-30T08:36:04;13.10;99.90
3912;DHT22;1971;51.778;10.330;2023-09-30T08:38:36;13.00;99.90
3912;DHT22;1971;51.778;10.330;2023-09-30T08:41:06;13.10;99.90
3912;DHT22;1971;51.778;10.330;2023-09-30T08:43:40;13.00;99.90
3912;DHT22;1971;51.778;10.330;2023-09-30T08:46:11;13.00;99.90
3912;DHT22;1971;51.778;10.330;2023-09-30T08:48:44;13.30;99.90
3912;DHT22;1971;51.778;10.330;2023-09-30T08:51:16;13.30;99.90
3912;DHT22;1971;51.778;10.330;2023-09-30T08:53:46;13.20;99.90
3912;DHT22;1971;51.778;10.330;2023-09-30T08:56:19;13.10;99.90
3912;DHT22;1971;51.778;10.330;2023-09-30T08:58:58;13.00;99.90
3912;DHT22;1971;51.778;10.330;2023-09-30T09:01:30;13.00;99.90
3912;DHT22;1971;51.778;10.330;2023-09-30T09:04:00;12.80;99.90
3912;DHT22;1971;51.778;10.330;2023-09-30T09:06:34;12.60;99.90
3912;DHT22;1971;51.778;10.330;2023-09-30T09:09:13;12.90;99.90
3912;DHT22;1971;51.778;10.330;2023-09-30T09:11:45;13.10;99.90
3912;DHT22;1971;51.778;10.330;2023-09-30T09:14:17;13.40;99.90
3912;DHT22;1971;51.778;10.330;2023-09-30T09:16:51;13.60;91.80
3912;DHT22;1971;51.778;10.330;2023-09-30T09:19:23;13.30;1.00
3912;DHT22;1971;51.778;10.330;2023-09-30T09:21:54;13.00;1.00
3912;DHT22;1971;51.778;10.330;2023-09-30T09:24:29;12.70;1.00
3912;DHT22;1971;51.778;10.330;2023-09-30T09:27:11;12.60;23.80
3912;DHT22;1971;51.778;10.330;2023-09-30T09:29:46;12.40;24.80
3912;DHT22;1971;51.778;10.330;2023-09-30T09:32:17;12.30;1.00
3912;DHT22;1971;51.778;10.330;2023-09-30T09:35:00;12.20;55.00
3912;DHT22;1971;51.778;10.330;2023-09-30T09:37:32;12.40;31.80
3912;DHT22;1971;51.778;10.330;2023-09-30T09:40:02;12.40;21.90
3912;DHT22;1971;51.778;10.330;2023-09-30T09:42:34;12.50;16.10
3912;DHT22;1971;51.778;10.330;2023-09-30T09:45:09;12.70;33.10
3912;DHT22;1971;51.778;10.330;2023-09-30T09:47:40;13.00;99.90
3912;DHT22;1971;51.778;10.330;2023-09-30T09:50:12;13.10;49.70
3912;DHT22;1971;51.778;10.330;2023-09-30T09:52:43;13.00;1.00
3912;DHT22;1971;51.778;10.330;2023-09-30T09:55:16;13.10;1.00
3912;DHT22;1971;51.778;10.330;2023-09-30T09:57:47;13.50;1.00
3912;DHT22;1971;51.778;10.330;2023-09-30T10:00:21;13.30;1.00
3912;DHT22;1971;51.778;10.330;2023-09-30T10:02:52;13.20;1.00
3912;DHT22;1971;51.778;10.330;2023-09-30T10:05:29;13.10;1.00
3912;DHT22;1971;51.778;10.330;2023-09-30T10:08:02;13.30;1.00
3912;DHT22;1971;51.778;10.330;2023-09-30T10:10:36;13.80;1.00
3912;DHT22;1971;51.778;10.330;2023-09-30T10:13:08;14.30;1.00
3912;DHT22;1971;51.778;10.330;2023-09-30T10:15:40;14.40;1.00
3912;DHT22;1971;51.778;10.330;2023-09-30T10:18:15;14.50;99.90
3912;DHT22;1971;51.778;10.330;2023-09-30T10:20:45;14.70;99.90
3912;DHT22;1971;51.778;10.330;2023-09-30T10:23:26;14.20;99.90
3912;DHT22;1971;51.778;10.330;2023-09-30T10:26:15;13.80;99.90
3912;DHT22;1971;51.778;10.330;2023-09-30T10:28:51;13.60;99.90
3912;DHT22;1971;51.778;10.330;2023-09-30T10:31:24;13.60;99.90
3912;DHT22;1971;51.778;10.330;2023-09-30T10:34:22;13.50;99.90
3912;DHT22;1971;51.778;10.330;2023-09-30T10:36:53;13.80;99.90
3912;DHT22;1971;51.778;10.330;2023-09-30T10:39:54;14.30;99.90
3912;DHT22;1971;51.778;10.330;2023-09-30T10:42:47;15.20;99.90
3912;DHT22;1971;51.778;10.330;2023-09-30T10:45:43;16.10;57.10
3912;DHT22;1971;51.778;10.330;2023-09-30T10:48:35;16.30;1.00
3912;DHT22;1971;51.778;10.330;2023-09-30T10:51:16;16.10;1.00
3912;DHT22;1971;51.778;10.330;2023-09-30T10:53:48;16.30;1.00
3912;DHT22;1971;51.778;10.330;2023-09-30T10:56:19;16.10;1.00
3912;DHT22;1971;51.778;10.330;2023-09-30T10:58:50;16.00;1.00
3912;DHT22;1971;51.778;10.330;2023-09-30T11:01:22;15.40;1.00
3912;DHT22;1971;51.778;10.330;2023-09-30T11:03:59;15.20;1.00
3912;DHT22;1971;51.778;10.330;2023-09-30T11:06:31;15.20;1.00
3912;DHT22;1971;51.778;10.330;2023-09-30T11:09:02;15.20;99.90
3912;DHT22;1971;51.778;10.330;2023-09-30T11:42:01;16.40;99.90
3912;DHT22;1971;51.778;10.330;2023-09-30T11:44:32;16.20;99.90
3912;DHT22;1971;51.778;10.330;2023-09-30T11:47:14;15.80;99.90
3912;DHT22;1971;51.778;10.330;2023-09-30T11:49:44;15.50;99.90
3912;DHT22;1971;51.778;10.330;2023-09-30T11:52:25;15.60;99.90
3912;DHT22;1971;51.778;10.330;2023-09-30T11:54:55;16.00;99.90
3912;DHT22;1971;51.778;10.330;2023-09-30T11:57:31;16.20;99.90
3912;DHT22;1971;51.778;10.330;2023-09-30T12:00:05;16.10;99.90
3912;DHT22;1971;51.778;10.330;2023-09-30T12:02:40;15.80;99.90
3912;DHT22;1971;51.778;10.330;2023-09-30T12:05:11;16.20;99.90
3912;DHT22;1971;51.778;10.330;2023-09-30T12:07:41;16.50;99.90
3912;DHT22;1971;51.778;10.330;2023-09-30T12:10:11;16.50;99.90
3912;DHT22;1971;51.778;10.330;2023-09-30T12:12:44;16.60;99.90
3912;DHT22;1971;51.778;10.330;2023-09-30T12:15:14;16.90;99.90
3912;DHT22;1971;51.778;10.330;2023-09-30T12:17:49;17.00;99.90
3912;DHT22;1971;51.778;10.330;2023-09-30T12:20:20;17.60;99.90
3912;DHT22;1971;51.778;10.330;2023-09-30T12:22:50;17.10;99.90
3912;DHT22;1971;51.778;10.330;2023-09-30T12:25:21;17.40;99.90
3912;DHT22;1971;51.778;10.330;2023-09-30T12:27:55;17.80;99.90
3912;DHT22;1971;51.778;10.330;2023-09-30T12:30:25;17.80;99.90
3912;DHT22;1971;51.778;10.330;2023-09-30T12:32:55;17.90;99.90
3912;DHT22;1971;51.778;10.330;2023-09-30T12:35:26;18.00;99.90
3912;DHT22;1971;51.778;10.330;2023-09-30T12:38:00;17.90;99.90
3912;DHT22;1971;51.778;10.330;2023-09-30T12:40:33;17.40;99.90
3912;DHT22;1971;51.778;10.330;2023-09-30T12:43:06;17.40;99.90
3912;DHT22;1971;51.778;10.330;2023-09-30T12:45:37;16.90;99.90
3912;DHT22;1971;51.778;10.330;2023-09-30T12:48:08;17.20;99.90
3912;DHT22;1971;51.778;10.330;2023-09-30T12:50:38;17.80;99.90
3912;DHT22;1971;51.778;10.330;2023-09-30T12:53:08;18.00;99.90
3912;DHT22;1971;51.778;10.330;2023-09-30T12:55:39;17.50;99.90
3912;DHT22;1971;51.778;10.330;2023-09-30T12:58:12;16.90;99.90
3912;DHT22;1971;51.778;10.330;2023-09-30T13:00:42;16.60;99.90
3912;DHT22;1971;51.778;10.330;2023-09-30T13:03:14;16.50;99.90
3912;DHT22;1971;51.778;10.330;2023-09-30T13:05:44;15.40;99.90
3912;DHT22;1971;51.778;10.330;2023-09-30T13:08:14;15.20;99.90
3912;DHT22;1971;51.778;10.330;2023-09-30T13:10:45;14.90;99.90
3912;DHT22;1971;51.778;10.330;2023-09-30T13:13:19;15.00;99.90
3912;DHT22;1971;51.778;10.330;2023-09-30T13:15:50;15.50;99.90
3912;DHT22;1971;51.778;10.330;2023-09-30T13:18:21;16.10;99.90
3912;DHT22;1971;51.778;10.330;2023-09-30T13:20:51;16.50;99.90
3912;DHT22;1971;51.778;10.330;2023-09-30T13:23:21;16.60;99.90
3912;DHT22;1971;51.778;10.330;2023-09-30T13:25:54;16.70;99.90
3912;DHT22;1971;51.778;10.330;2023-09-30T13:28:26;16.70;99.90
3912;DHT22;1971;51.778;10.330;2023-09-30T13:30:57;16.90;99.90
3912;DHT22;1971;51.778;10.330;2023-09-30T13:33:27;16.80;99.90
3912;DHT22;1971;51.778;10.330;2023-09-30T13:35:58;16.70;99.90
3912;DHT22;1971;51.778;10.330;2023-09-30T13:38:30;16.20;99.90
3912;DHT22;1971;51.778;10.330;2023-09-30T13:41:01;15.90;99.90
3912;DHT22;1971;51.778;10.330;2023-09-30T13:43:35;16.00;99.90
3912;DHT22;1971;51.778;10.330;2023-09-30T13:46:06;16.20;99.90
3912;DHT22;1971;51.778;10.330;2023-09-30T13:48:37;15.90;99.90
3912;DHT22;1971;51.778;10.330;2023-09-30T13:51:08;15.40;99.90
3912;DHT22;1971;51.778;10.330;2023-09-30T13:53:39;15.20;99.90
3912;DHT22;1971;51.778;10.330;2023-09-30T13:56:10;15.30;99.90
3912;DHT22;1971;51.778;10.330;2023-09-30T13:58:43;15.30;99.90
3912;DHT22;1971;51.778;10.330;2023-09-30T14:01:13;15.30;99.90
3912;DHT22;1971;51.778;10.330;2023-09-30T14:03:44;15.30;99.90
3912;DHT22;1971;51.778;10.330;2023-09-30T14:06:15;15.30;99.90
3912;DHT22;1971;51.778;10.330;2023-09-30T14:08:45;15.30;99.90
3912;DHT22;1971;51.778;10.330;2023-09-30T14:11:15;15.30;99.90
3912;DHT22;1971;51.778;10.330;2023-09-30T14:13:48;15.30;99.90
3912;DHT22;1971;51.778;10.330;2023-09-30T14:16:18;15.40;99.90
3912;DHT22;1971;51.778;10.330;2023-09-30T14:18:48;15.50;99.90
3912;DHT22;1971;51.778;10.330;2023-09-30T14:21:18;15.30;99.90
3912;DHT22;1971;51.778;10.330;2023-09-30T14:23:48;15.20;99.90
3912;DHT22;1971;51.778;10.330;2023-09-30T14:26:19;15.30;99.90
3912;DHT22;1971;51.778;10.330;2023-09-30T14:28:51;15.40;99.90
3912;DHT22;1971;51.778;10.330;2023-09-30T14:31:22;15.50;99.90
3912;DHT22;1971;51.778;10.330;2023-09-30T14:33:52;15.50;99.90
3912;DHT22;1971;51.778;10.330;2023-09-30T14:36:22;15.60;99.90
3912;DHT22;1971;51.778;10.330;2023-09-30T14:38:52;15.60;99.90
3912;DHT22;1971;51.778;10.330;2023-09-30T14:41:40;15.70;99.90
3912;DHT22;1971;51.778;10.330;2023-09-30T14:44:13;15.60;99.90
3912;DHT22;1971;51.778;10.330;2023-09-30T14:46:44;15.60;99.90
3912;DHT22;1971;51.778;10.330;2023-09-30T14:49:14;15.90;99.90
3912;DHT22;1971;51.778;10.330;2023-09-30T14:51:45;16.30;99.90
3912;DHT22;1971;51.778;10.330;2023-09-30T14:54:16;16.60;99.90
3912;DHT22;1971;51.778;10.330;2023-09-30T14:56:46;16.50;99.90
3912;DHT22;1971;51.778;10.330;2023-09-30T14:59:19;16.60;99.90
3912;DHT22;1971;51.778;10.330;2023-09-30T15:01:50;16.70;99.90
3912;DHT22;1971;51.778;10.330;2023-09-30T15:04:20;16.80;99.90
3912;DHT22;1971;51.778;10.330;2023-09-30T15:06:52;16.90;99.90
3912;DHT22;1971;51.778;10.330;2023-09-30T15:09:22;16.80;99.90
3912;DHT22;1971;51.778;10.330;2023-09-30T15:11:52;17.00;99.90
3912;DHT22;1971;51.778;10.330;2023-09-30T15:14:25;17.00;99.90
3912;DHT22;1971;51.778;10.330;2023-09-30T15:16:55;17.40;99.90
3912;DHT22;1971;51.778;10.330;2023-09-30T15:19:25;17.20;99.90
3912;DHT22;1971;51.778;10.330;2023-09-30T15:21:56;17.30;99.90
3912;DHT22;1971;51.778;10.330;2023-09-30T15:24:27;17.30;99.90
3912;DHT22;1971;51.778;10.330;2023-09-30T15:26:58;17.10;99.90
3912;DHT22;1971;51.778;10.330;2023-09-30T15:29:31;16.90;99.90
3912;DHT22;1971;51.778;10.330;2023-09-30T15:32:03;16.70;99.90
3912;DHT22;1971;51.778;10.330;2023-09-30T15:34:35;16.40;99.90
3912;DHT22;1971;51.778;10.330;2023-09-30T15:37:07;16.00;99.90
3912;DHT22;1971;51.778;10.330;2023-09-30T15:39:39;16.10;99.90
3912;DHT22;1971;51.778;10.330;2023-09-30T15:42:10;15.60;99.90
3912;DHT22;1971;51.778;10.330;2023-09-30T15:44:43;15.10;99.90
3912;DHT22;1971;51.778;10.330;2023-09-30T15:47:13;14.90;99.90
3912;DHT22;1971;51.778;10.330;2023-09-30T15:49:44;14.80;99.90
3912;DHT22;1971;51.778;10.330;2023-09-30T15:52:14;14.80;99.90
3912;DHT22;1971;51.778;10.330;2023-09-30T15:54:45;14.80;99.90
3912;DHT22;1971;51.778;10.330;2023-09-30T15:57:17;14.80;99.90
3912;DHT22;1971;51.778;10.330;2023-09-30T15:59:50;14.80;99.90
3912;DHT22;1971;51.778;10.330;2023-09-30T16:02:20;14.70;99.90
3912;DHT22;1971;51.778;10.330;2023-09-30T16:04:50;14.70;99.90
3912;DHT22;1971;51.778;10.330;2023-09-30T16:07:20;14.50;99.90
3912;DHT22;1971;51.778;10.330;2023-09-30T16:09:50;14.30;99.90
3912;DHT22;1971;51.778;10.330;2023-09-30T16:12:21;14.20;99.90
3912;DHT22;1971;51.778;10.330;2023-09-30T16:14:53;14.10;99.90
3912;DHT22;1971;51.778;10.330;2023-09-30T16:17:24;14.00;1.00
3912;DHT22;1971;51.778;10.330;2023-09-30T16:19:54;13.90;1.00
3912;DHT22;1971;51.778;10.330;2023-09-30T16:22:24;13.80;1.00
3912;DHT22;1971;51.778;10.330;2023-09-30T16:24:54;13.70;1.00
3912;DHT22;1971;51.778;10.330;2023-09-30T16:27:24;13.40;1.00
3912;DHT22;1971;51.778;10.330;2023-09-30T16:29:57;13.30;1.00
3912;DHT22;1971;51.778;10.330;2023-09-30T16:32:27;13.10;1.00
3912;DHT22;1971;51.778;10.330;2023-09-30T16:34:58;12.90;19.70
3912;DHT22;1971;51.778;10.330;2023-09-30T16:37:29;12.70;99.60
3912;DHT22;1971;51.778;10.330;2023-09-30T16:40:01;12.60;99.90
3912;DHT22;1971;51.778;10.330;2023-09-30T16:42:32;12.50;99.90
3912;DHT22;1971;51.778;10.330;2023-09-30T16:45:06;12.50;99.90
3912;DHT22;1971;51.778;10.330;2023-09-30T16:47:37;12.40;99.90
3912;DHT22;1971;51.778;10.330;2023-09-30T16:50:08;12.30;99.90
3912;DHT22;1971;51.778;10.330;2023-09-30T16:52:38;12.00;99.90
3912;DHT22;1971;51.778;10.330;2023-09-30T16:55:09;11.90;99.90
3912;DHT22;1971;51.778;10.330;2023-09-30T16:57:39;11.70;99.90
3912;DHT22;1971;51.778;10.330;2023-09-30T17:00:12;11.70;99.90
3912;DHT22;1971;51.778;10.330;2023-09-30T17:02:46;11.70;99.90
3912;DHT22;1971;51.778;10.330;2023-09-30T17:05:16;11.50;99.90
3912;DHT22;1971;51.778;10.330;2023-09-30T17:07:46;11.30;99.90
3912;DHT22;1971;51.778;10.330;2023-09-30T17:10:17;11.30;1.00
3912;DHT22;1971;51.778;10.330;2023-09-30T17:12:47;11.10;1.00
3912;DHT22;1971;51.778;10.330;2023-09-30T17:15:20;11.10;1.00
3912;DHT22;1971;51.778;10.330;2023-09-30T17:17:50;11.00;1.00
3912;DHT22;1971;51.778;10.330;2023-09-30T17:20:20;10.90;1.00
3912;DHT22;1971;51.778;10.330;2023-09-30T17:22:51;10.60;1.00